createdAt,value
2023-04-14T00:00:23.797Z,9.70
2023-04-14T00:03:09.453Z,9.72
2023-04-14T00:05:54.949Z,9.72
2023-04-14T00:08:40.359Z,9.73
2023-04-14T00:11:26.138Z,9.73
2023-04-14T00:14:11.591Z,9.74
2023-04-14T00:16:57.047Z,9.81
2023-04-14T00:19:42.387Z,9.82
2023-04-14T00:22:28.715Z,9.87
2023-04-14T00:25:14.154Z,9.86
2023-04-14T00:27:59.366Z,9.87
2023-04-14T00:30:44.702Z,9.90
2023-04-14T00:33:29.989Z,9.95
2023-04-14T00:36:15.312Z,9.96
2023-04-14T00:39:00.750Z,9.95
2023-04-14T00:41:46.161Z,9.98
2023-04-14T00:44:31.771Z,9.99
2023-04-14T00:47:17.543Z,10.01
2023-04-14T00:50:05.182Z,10.02
2023-04-14T00:52:52.547Z,9.97
2023-04-14T00:55:39.223Z,9.94
2023-04-14T00:58:25.326Z,9.87
2023-04-14T01:01:11.106Z,9.79
2023-04-14T01:03:58.974Z,9.77
2023-04-14T01:06:46.306Z,9.74
2023-04-14T01:09:31.926Z,9.72
2023-04-14T01:12:51.308Z,9.71
2023-04-14T01:15:51.530Z,9.66
2023-04-14T01:19:15.457Z,9.63
2023-04-14T01:22:06.311Z,9.61
2023-04-14T01:25:00.956Z,9.59
2023-04-14T01:27:55.898Z,9.59
2023-04-14T01:30:54.183Z,9.54
2023-04-14T01:33:42.974Z,9.55
2023-04-14T01:36:42.208Z,9.56
2023-04-14T01:39:34.792Z,9.54
2023-04-14T01:42:24.870Z,9.56
2023-04-14T01:45:11.728Z,9.54
2023-04-14T01:47:59.366Z,9.56
2023-04-14T01:50:47.172Z,9.56
2023-04-14T01:53:36.054Z,9.53
2023-04-14T01:56:22.768Z,9.53
2023-04-14T01:59:10.910Z,9.52
2023-04-14T02:01:56.897Z,9.51
2023-04-14T02:04:43.119Z,9.53
2023-04-14T02:07:31.545Z,9.52
2023-04-14T02:10:20.527Z,9.54
2023-04-14T02:13:07.845Z,9.52
2023-04-14T02:15:53.243Z,9.47
2023-04-14T02:18:40.766Z,9.44
2023-04-14T02:21:28.437Z,9.41
2023-04-14T02:24:14.036Z,9.40
2023-04-14T02:27:05.854Z,9.41
2023-04-14T02:29:54.739Z,9.43
2023-04-14T02:32:45.348Z,9.41
2023-04-14T02:35:39.700Z,9.39
2023-04-14T02:38:32.107Z,9.39
2023-04-14T02:41:23.444Z,9.39
2023-04-14T02:44:22.348Z,9.40
2023-04-14T02:47:13.521Z,9.42
2023-04-14T02:50:05.357Z,9.41
2023-04-14T02:52:54.463Z,9.40
2023-04-14T02:55:46.639Z,9.41
2023-04-14T02:58:33.495Z,9.41
2023-04-14T03:01:19.411Z,9.37
2023-04-14T03:04:06.173Z,9.29
2023-04-14T03:06:55.804Z,9.27
2023-04-14T03:09:42.447Z,9.27
2023-04-14T03:12:29.839Z,9.25
2023-04-14T03:15:16.110Z,9.23
2023-04-14T03:18:03.731Z,9.23
2023-04-14T03:20:51.597Z,9.24
2023-04-14T03:23:38.493Z,9.30
2023-04-14T03:26:29.324Z,9.36
2023-04-14T03:29:16.413Z,9.40
2023-04-14T03:32:06.764Z,9.38
2023-04-14T03:34:58.553Z,9.32
2023-04-14T03:37:48.549Z,9.32
2023-04-14T03:40:38.444Z,9.24
2023-04-14T03:43:24.893Z,8.80
2023-04-14T03:46:16.812Z,8.52
2023-04-14T03:49:07.362Z,8.44
2023-04-14T03:51:54.718Z,8.41
2023-04-14T03:54:42.722Z,8.48
2023-04-14T03:57:31.518Z,8.47
2023-04-14T04:00:18.738Z,8.50
2023-04-14T04:03:08.829Z,8.55
2023-04-14T04:05:54.853Z,8.60
2023-04-14T04:08:41.627Z,8.60
2023-04-14T04:11:29.525Z,8.59
2023-04-14T04:14:19.080Z,8.61
2023-04-14T04:17:07.896Z,8.65
2023-04-14T04:19:57.321Z,8.71
2023-04-14T04:22:44.905Z,8.77
2023-04-14T04:25:33.017Z,8.83
2023-04-14T04:28:24.969Z,8.87
2023-04-14T04:31:10.957Z,8.92
2023-04-14T04:33:58.119Z,8.97
2023-04-14T04:36:44.831Z,9.03
2023-04-14T04:39:30.437Z,9.10
2023-04-14T04:42:16.838Z,9.11
2023-04-14T04:45:02.193Z,9.13
2023-04-14T04:47:48.237Z,9.12
2023-04-14T04:50:33.681Z,9.05
2023-04-14T04:53:19.013Z,9.04
2023-04-14T04:56:04.494Z,9.03
2023-04-14T04:58:49.552Z,9.06
2023-04-14T05:01:35.467Z,9.04
2023-04-14T05:04:21.405Z,9.07
2023-04-14T05:07:06.875Z,9.10
2023-04-14T05:09:52.117Z,9.09
2023-04-14T05:12:37.279Z,9.13
2023-04-14T05:15:22.745Z,9.13
2023-04-14T05:18:08.182Z,9.10
2023-04-14T05:20:53.683Z,9.07
2023-04-14T05:23:42.143Z,9.07
2023-04-14T05:26:51.224Z,9.07
2023-04-14T05:29:34.454Z,9.06
2023-04-14T05:32:21.485Z,9.05
2023-04-14T05:35:06.879Z,9.05
2023-04-14T05:37:52.048Z,9.10
2023-04-14T05:40:37.901Z,9.10
2023-04-14T05:43:23.164Z,9.03
2023-04-14T05:46:08.666Z,9.02
2023-04-14T05:48:54.020Z,9.03
2023-04-14T05:51:39.367Z,9.05
2023-04-14T05:54:25.163Z,9.06
2023-04-14T05:57:10.551Z,9.08
2023-04-14T05:59:57.634Z,9.10
2023-04-14T06:02:44.797Z,9.12
2023-04-14T06:05:30.258Z,9.20
2023-04-14T06:08:15.666Z,9.22
2023-04-14T06:11:00.712Z,9.23
2023-04-14T06:13:46.188Z,9.28
2023-04-14T06:16:31.673Z,9.30
2023-04-14T06:19:18.678Z,9.30
2023-04-14T06:22:05.467Z,9.28
2023-04-14T06:24:50.660Z,9.32
2023-04-14T06:27:36.076Z,9.34
2023-04-14T06:30:21.323Z,9.30
2023-04-14T06:33:07.264Z,9.25
2023-04-14T06:35:52.611Z,9.20
2023-04-14T06:38:37.787Z,9.19
2023-04-14T06:41:23.332Z,9.21
2023-04-14T06:44:08.721Z,9.26
2023-04-14T06:46:54.952Z,9.31
2023-04-14T06:49:41.843Z,9.32
2023-04-14T06:52:27.068Z,9.37
2023-04-14T06:55:12.538Z,9.35
2023-04-14T06:57:57.937Z,9.34
2023-04-14T07:00:43.246Z,9.32
2023-04-14T07:03:34.292Z,9.32
2023-04-14T07:06:19.780Z,9.34
2023-04-14T07:09:05.283Z,9.39
2023-04-14T07:11:52.432Z,9.44
2023-04-14T07:14:38.050Z,9.49
2023-04-14T07:17:23.713Z,9.55
2023-04-14T07:20:10.172Z,9.60
2023-04-14T07:22:55.874Z,9.54
2023-04-14T07:25:41.029Z,9.46
2023-04-14T07:28:28.068Z,9.47
2023-04-14T07:31:13.345Z,9.40
2023-04-14T07:33:58.652Z,9.36
2023-04-14T07:36:43.886Z,9.41
2023-04-14T07:39:29.395Z,9.58
2023-04-14T07:42:15.001Z,9.52
2023-04-14T07:44:59.897Z,9.31
2023-04-14T07:47:45.199Z,9.23
2023-04-14T07:50:30.535Z,9.20
2023-04-14T07:53:16.106Z,9.24
2023-04-14T07:56:01.751Z,9.22
2023-04-14T07:58:47.060Z,9.28
2023-04-14T08:01:32.786Z,9.31
2023-04-14T08:04:18.098Z,9.30
2023-04-14T08:07:03.481Z,9.32
2023-04-14T08:09:49.563Z,9.36
2023-04-14T08:12:35.207Z,9.33
2023-04-14T08:15:45.343Z,9.17
2023-04-14T08:18:34.264Z,8.97
2023-04-14T08:21:23.194Z,8.71
2023-04-14T08:24:08.534Z,8.53
2023-04-14T08:26:54.796Z,8.42
2023-04-14T08:29:40.287Z,8.38
2023-04-14T08:32:26.185Z,8.29
2023-04-14T08:35:37.529Z,8.34
2023-04-14T08:38:20.854Z,8.44
2023-04-14T08:41:08.953Z,8.58
2023-04-14T08:43:54.837Z,8.71
2023-04-14T08:46:42.863Z,8.78
2023-04-14T08:49:41.714Z,8.76
2023-04-14T08:52:29.021Z,8.82
2023-04-14T08:55:15.606Z,8.81
2023-04-14T08:58:02.235Z,8.76
2023-04-14T09:00:47.956Z,8.70
2023-04-14T09:03:34.769Z,8.74
2023-04-14T09:06:22.189Z,8.86
2023-04-14T09:09:08.565Z,8.88
2023-04-14T09:11:54.486Z,8.80
2023-04-14T09:14:40.810Z,8.73
2023-04-14T09:17:26.832Z,8.77
2023-04-14T09:20:36.568Z,8.75
2023-04-14T09:23:24.392Z,8.74
2023-04-14T09:26:10.534Z,8.63
2023-04-14T09:28:55.842Z,8.55
2023-04-14T09:31:42.087Z,8.59
2023-04-14T09:34:28.068Z,8.54
2023-04-14T09:37:13.254Z,8.48
2023-04-14T09:39:58.476Z,8.46
2023-04-14T09:42:46.768Z,8.52
2023-04-14T09:45:44.907Z,8.52
2023-04-14T09:48:30.538Z,8.48
2023-04-14T09:51:16.066Z,8.46
2023-04-14T09:54:03.569Z,8.49
2023-04-14T09:56:49.326Z,8.55
2023-04-14T09:59:37.056Z,8.54
2023-04-14T10:02:22.667Z,8.53
2023-04-14T10:05:08.291Z,8.47
2023-04-14T10:07:53.980Z,8.45
2023-04-14T10:10:39.310Z,8.54
2023-04-14T10:13:24.520Z,8.48
2023-04-14T10:16:10.661Z,8.51
2023-04-14T10:18:58.262Z,8.59
2023-04-14T10:21:43.737Z,8.59
2023-04-14T10:24:29.633Z,8.53
2023-04-14T10:27:15.516Z,8.56
2023-04-14T10:30:06.588Z,8.53
2023-04-14T10:39:57.407Z,8.46
2023-04-14T10:42:55.525Z,8.48
2023-04-14T10:46:10.940Z,8.50
2023-04-14T10:49:47.037Z,8.59
2023-04-14T10:52:35.129Z,8.62
2023-04-14T10:55:22.691Z,8.67
2023-04-14T10:58:19.107Z,8.55
2023-04-14T11:01:31.879Z,8.55
2023-04-14T11:04:18.981Z,8.47
2023-04-14T11:07:09.310Z,8.37
2023-04-14T11:10:01.025Z,8.34
2023-04-14T11:12:48.143Z,8.33
2023-04-14T11:15:52.238Z,8.27
2023-04-14T11:18:46.058Z,8.27
2023-04-14T11:21:32.001Z,8.26
2023-04-14T11:24:18.025Z,8.24
2023-04-14T11:27:03.292Z,8.14
2023-04-14T11:29:48.704Z,8.10
2023-04-14T11:32:48.768Z,8.17
2023-04-14T11:35:34.280Z,8.14
2023-04-14T11:38:20.812Z,8.13
2023-04-14T11:41:06.819Z,8.10
2023-04-14T11:43:52.177Z,8.10
2023-04-14T11:46:38.901Z,8.03
2023-04-14T11:49:37.137Z,7.98
2023-04-14T11:52:22.957Z,7.94
2023-04-14T11:55:09.028Z,7.94
2023-04-14T11:57:55.226Z,7.95
2023-04-14T12:00:41.668Z,7.88
2023-04-14T12:03:29.350Z,7.92
2023-04-14T12:06:15.318Z,8.05
2023-04-14T12:09:03.797Z,8.00
2023-04-14T12:11:55.804Z,7.98
2023-04-14T12:14:42.788Z,7.95
2023-04-14T12:17:28.478Z,8.01
2023-04-14T12:20:16.164Z,7.91
2023-04-14T12:23:05.194Z,8.13
2023-04-14T12:25:51.458Z,8.36
2023-04-14T12:28:39.064Z,9.08
2023-04-14T12:31:32.128Z,9.10
2023-04-14T12:34:25.322Z,8.71
2023-04-14T12:37:12.060Z,8.78
2023-04-14T12:40:00.338Z,8.89
2023-04-14T12:42:48.244Z,8.37
2023-04-14T12:45:48.094Z,8.17
2023-04-14T12:48:48.493Z,8.19
2023-04-14T12:51:38.874Z,8.12
2023-04-14T12:54:24.700Z,8.09
2023-04-14T12:57:09.808Z,8.03
2023-04-14T12:59:55.249Z,8.02
2023-04-14T13:02:43.552Z,7.95
2023-04-14T13:05:30.343Z,7.87
2023-04-14T13:08:15.870Z,7.77
2023-04-14T13:11:01.277Z,7.72
2023-04-14T13:13:47.284Z,7.73
2023-04-14T13:16:33.331Z,7.72
2023-04-14T13:19:18.948Z,7.81
2023-04-14T13:22:04.358Z,7.82
2023-04-14T13:24:50.103Z,7.88
2023-04-14T13:27:35.667Z,7.84
2023-04-14T13:30:20.983Z,7.79
2023-04-14T13:33:06.231Z,7.75
2023-04-14T13:35:52.994Z,7.76
2023-04-14T13:38:38.334Z,7.79
2023-04-14T13:41:24.439Z,7.79
2023-04-14T13:44:09.990Z,7.77
2023-04-14T13:46:55.231Z,7.75
2023-04-14T13:49:40.765Z,7.78
2023-04-14T13:52:26.178Z,7.76
2023-04-14T13:55:11.869Z,7.82
2023-04-14T13:57:57.011Z,7.83
2023-04-14T14:00:42.184Z,7.86
2023-04-14T14:03:29.835Z,7.89
2023-04-14T14:06:16.496Z,7.98
2023-04-14T14:09:05.755Z,7.96
2023-04-14T14:11:51.762Z,8.00
2023-04-14T14:14:37.172Z,8.03
2023-04-14T14:17:23.336Z,8.07
2023-04-14T14:20:09.595Z,8.06
2023-04-14T14:22:55.115Z,8.09
2023-04-14T14:25:40.947Z,8.05
2023-04-14T14:28:26.194Z,8.04
2023-04-14T14:31:11.636Z,7.98
2023-04-14T14:33:57.074Z,7.95
2023-04-14T14:36:43.648Z,7.93
2023-04-14T14:39:32.078Z,7.91
2023-04-14T14:42:17.756Z,7.89
2023-04-14T14:45:03.711Z,7.97
2023-04-14T14:47:49.124Z,8.01
2023-04-14T14:50:34.285Z,7.98
2023-04-14T14:53:19.805Z,7.96
2023-04-14T14:56:05.720Z,8.02
2023-04-14T14:58:52.707Z,8.03
2023-04-14T15:01:37.864Z,8.00
2023-04-14T15:04:23.242Z,7.93
2023-04-14T15:07:08.586Z,7.86
2023-04-14T15:09:53.890Z,7.86
2023-04-14T15:12:39.276Z,7.83
2023-04-14T15:15:24.754Z,7.82
2023-04-14T15:18:11.302Z,7.82
2023-04-14T15:20:56.764Z,7.85
2023-04-14T15:23:44.212Z,7.90
2023-04-14T15:26:29.447Z,7.81
2023-04-14T15:29:17.727Z,7.77
2023-04-14T15:32:03.001Z,7.74
2023-04-14T15:34:48.355Z,7.79
2023-04-14T15:37:34.639Z,7.70
2023-04-14T15:40:19.917Z,7.63
2023-04-14T15:43:05.321Z,7.59
2023-04-14T15:45:52.756Z,7.63
2023-04-14T15:48:38.058Z,7.60
2023-04-14T15:51:25.079Z,7.63
2023-04-14T15:54:10.694Z,7.66
2023-04-14T15:56:56.061Z,7.63
